sensor_id;sensor_type;location;lat;lon;timestamp;pressure;altitude;pressure_sealevel;temperature;humidity
16016;BME280;8112;53.592;10.184;2022-12-18T00:03:32;102606.69;;;-6.49;100.00
16016;BME280;8112;53.592;10.184;2022-12-18T00:08:34;102623.72;;;-6.51;100.00
16016;BME280;8112;53.592;10.184;2022-12-18T00:13:37;102616.47;;;-6.40;100.00
16016;BME280;8112;53.592;10.184;2022-12-18T00:18:39;102611.84;;;-6.27;100.00
16016;BME280;8112;53.592;10.184;2022-12-18T00:23:43;102617.63;;;-6.33;100.00
16016;BME280;8112;53.592;10.184;2022-12-18T00:28:46;102627.47;;;-6.42;100.00
16016;BME280;8112;53.592;10.184;2022-12-18T00:33:48;102622.50;;;-6.39;100.00
16016;BME280;8112;53.592;10.184;2022-12-18T00:38:50;102635.94;;;-6.45;100.00
16016;BME280;8112;53.592;10.184;2022-12-18T00:43:53;102637.50;;;-6.49;100.00
16016;BME280;8112;53.592;10.184;2022-12-18T00:48:55;102629.91;;;-6.46;100.00
16016;BME280;8112;53.592;10.184;2022-12-18T00:53:56;102633.94;;;-6.31;100.00
16016;BME280;8112;53.592;10.184;2022-12-18T00:58:59;102626.97;;;-6.34;100.00
16016;BME280;8112;53.592;10.184;2022-12-18T01:04:02;102634.75;;;-6.32;100.00
16016;BME280;8112;53.592;10.184;2022-12-18T01:09:04;102637.19;;;-6.35;100.00
16016;BME280;8112;53.592;10.184;2022-12-18T01:14:07;102633.75;;;-6.36;100.00
16016;BME280;8112;53.592;10.184;2022-12-18T01:19:11;102640.59;;;-6.36;100.00
16016;BME280;8112;53.592;10.184;2022-12-18T01:24:13;102645.84;;;-6.33;100.00
16016;BME280;8112;53.592;10.184;2022-12-18T01:29:17;102635.50;;;-6.35;100.00
16016;BME280;8112;53.592;10.184;2022-12-18T01:34:18;102637.66;;;-6.24;100.00
16016;BME280;8112;53.592;10.184;2022-12-18T01:39:20;102631.00;;;-6.19;100.00
16016;BME280;8112;53.592;10.184;2022-12-18T01:44:59;102633.38;;;-6.24;100.00
16016;BME280;8112;53.592;10.184;2022-12-18T01:50:04;102634.75;;;-6.32;100.00
16016;BME280;8112;53.592;10.184;2022-12-18T01:55:09;102644.22;;;-6.31;100.00
16016;BME280;8112;53.592;10.184;2022-12-18T02:00:16;102647.78;;;-6.27;100.00
16016;BME280;8112;53.592;10.184;2022-12-18T02:05:25;102657.13;;;-6.30;100.00
16016;BME280;8112;53.592;10.184;2022-12-18T02:10:38;102658.09;;;-6.26;100.00
16016;BME280;8112;53.592;10.184;2022-12-18T02:15:51;102658.78;;;-6.30;100.00
16016;BME280;8112;53.592;10.184;2022-12-18T02:21:02;102656.09;;;-6.33;100.00
16016;BME280;8112;53.592;10.184;2022-12-18T02:26:18;102663.56;;;-6.39;100.00
16016;BME280;8112;53.592;10.184;2022-12-18T02:31:27;102660.91;;;-6.41;100.00
16016;BME280;8112;53.592;10.184;2022-12-18T02:36:31;102665.78;;;-6.47;100.00
16016;BME280;8112;53.592;10.184;2022-12-18T02:41:36;102669.69;;;-6.55;100.00
16016;BME280;8112;53.592;10.184;2022-12-18T02:46:41;102676.88;;;-6.48;100.00
16016;BME280;8112;53.592;10.184;2022-12-18T02:51:52;102683.06;;;-6.43;100.00
16016;BME280;8112;53.592;10.184;2022-12-18T02:56:59;102673.81;;;-6.39;100.00
16016;BME280;8112;53.592;10.184;2022-12-18T03:02:11;102677.16;;;-6.40;100.00
16016;BME280;8112;53.592;10.184;2022-12-18T03:07:23;102692.31;;;-6.47;100.00
16016;BME280;8112;53.592;10.184;2022-12-18T03:12:32;102689.63;;;-6.50;100.00
16016;BME280;8112;53.592;10.184;2022-12-18T03:17:34;102689.63;;;-6.50;100.00
16016;BME280;8112;53.592;10.184;2022-12-18T03:22:38;102692.19;;;-6.50;100.00
16016;BME280;8112;53.592;10.184;2022-12-18T03:27:48;102681.66;;;-6.56;100.00
16016;BME280;8112;53.592;10.184;2022-12-18T03:32:53;102676.31;;;-6.61;100.00
16016;BME280;8112;53.592;10.184;2022-12-18T03:37:58;102684.88;;;-6.60;100.00
16016;BME280;8112;53.592;10.184;2022-12-18T03:43:08;102689.19;;;-6.59;100.00
16016;BME280;8112;53.592;10.184;2022-12-18T03:48:17;102684.84;;;-6.62;100.00
16016;BME280;8112;53.592;10.184;2022-12-18T03:53:28;102682.75;;;-6.70;100.00
16016;BME280;8112;53.592;10.184;2022-12-18T03:58:37;102682.88;;;-6.67;100.00
16016;BME280;8112;53.592;10.184;2022-12-18T04:03:50;102677.81;;;-6.66;100.00
16016;BME280;8112;53.592;10.184;2022-12-18T04:08:54;102680.22;;;-6.69;100.00
16016;BME280;8112;53.592;10.184;2022-12-18T04:14:01;102672.47;;;-6.70;100.00
16016;BME280;8112;53.592;10.184;2022-12-18T04:19:03;102671.66;;;-6.69;100.00
16016;BME280;8112;53.592;10.184;2022-12-18T04:24:11;102676.53;;;-6.76;100.00
16016;BME280;8112;53.592;10.184;2022-12-18T04:29:20;102675.78;;;-6.73;100.00
16016;BME280;8112;53.592;10.184;2022-12-18T04:34:22;102686.13;;;-6.71;100.00
16016;BME280;8112;53.592;10.184;2022-12-18T04:39:27;102688.34;;;-6.79;100.00
16016;BME280;8112;53.592;10.184;2022-12-18T04:44:33;102689.16;;;-6.80;100.00
16016;BME280;8112;53.592;10.184;2022-12-18T04:49:35;102684.22;;;-6.76;100.00
16016;BME280;8112;53.592;10.184;2022-12-18T04:54:37;102688.25;;;-6.81;100.00
16016;BME280;8112;53.592;10.184;2022-12-18T04:59:40;102683.00;;;-6.84;100.00
16016;BME280;8112;53.592;10.184;2022-12-18T05:04:41;102697.34;;;-6.88;100.00
16016;BME280;8112;53.592;10.184;2022-12-18T05:09:43;102696.53;;;-6.87;100.00
16016;BME280;8112;53.592;10.184;2022-12-18T05:14:46;102702.56;;;-6.86;100.00
16016;BME280;8112;53.592;10.184;2022-12-18T05:19:48;102716.31;;;-6.84;100.00
16016;BME280;8112;53.592;10.184;2022-12-18T05:24:49;102718.75;;;-6.87;100.00
16016;BME280;8112;53.592;10.184;2022-12-18T05:29:52;102726.81;;;-6.79;100.00
16016;BME280;8112;53.592;10.184;2022-12-18T05:34:54;102725.25;;;-6.76;100.00
16016;BME280;8112;53.592;10.184;2022-12-18T05:39:57;102720.13;;;-6.76;100.00
16016;BME280;8112;53.592;10.184;2022-12-18T05:45:00;102724.59;;;-6.71;100.00
16016;BME280;8112;53.592;10.184;2022-12-18T05:50:02;102727.63;;;-6.80;100.00
16016;BME280;8112;53.592;10.184;2022-12-18T05:55:04;102729.38;;;-6.79;100.00
16016;BME280;8112;53.592;10.184;2022-12-18T06:00:09;102724.97;;;-6.82;100.00
16016;BME280;8112;53.592;10.184;2022-12-18T06:05:12;102726.44;;;-6.87;100.00
16016;BME280;8112;53.592;10.184;2022-12-18T06:10:14;102724.69;;;-6.88;100.00
16016;BME280;8112;53.592;10.184;2022-12-18T06:15:17;102732.03;;;-6.96;100.00
16016;BME280;8112;53.592;10.184;2022-12-18T06:20:19;102741.13;;;-7.03;100.00
16016;BME280;8112;53.592;10.184;2022-12-18T06:25:20;102747.88;;;-7.05;100.00
16016;BME280;8112;53.592;10.184;2022-12-18T06:30:24;102751.25;;;-7.06;100.00
16016;BME280;8112;53.592;10.184;2022-12-18T06:35:25;102760.91;;;-7.00;100.00
16016;BME280;8112;53.592;10.184;2022-12-18T06:40:27;102762.88;;;-6.94;100.00
16016;BME280;8112;53.592;10.184;2022-12-18T06:45:30;102769.69;;;-6.95;100.00
16016;BME280;8112;53.592;10.184;2022-12-18T06:50:32;102771.16;;;-7.00;100.00
16016;BME280;8112;53.592;10.184;2022-12-18T06:55:33;102767.47;;;-7.05;100.00
16016;BME280;8112;53.592;10.184;2022-12-18T07:00:36;102766.72;;;-7.04;100.00
16016;BME280;8112;53.592;10.184;2022-12-18T07:05:39;102772.69;;;-7.04;100.00
16016;BME280;8112;53.592;10.184;2022-12-18T07:10:42;102761.50;;;-7.06;100.00
16016;BME280;8112;53.592;10.184;2022-12-18T07:15:45;102748.00;;;-7.02;100.00
16016;BME280;8112;53.592;10.184;2022-12-18T07:20:46;102772.59;;;-7.05;100.00
16016;BME280;8112;53.592;10.184;2022-12-18T07:25:48;102777.53;;;-7.10;100.00
16016;BME280;8112;53.592;10.184;2022-12-18T07:30:51;102782.00;;;-7.06;100.00
16016;BME280;8112;53.592;10.184;2022-12-18T07:35:53;102789.09;;;-7.00;100.00
16016;BME280;8112;53.592;10.184;2022-12-18T07:40:54;102788.75;;;-7.08;100.00
16016;BME280;8112;53.592;10.184;2022-12-18T07:45:57;102800.88;;;-7.04;100.00
16016;BME280;8112;53.592;10.184;2022-12-18T07:50:59;102802.72;;;-7.01;100.00
16016;BME280;8112;53.592;10.184;2022-12-18T07:56:03;102803.09;;;-6.93;100.00
16016;BME280;8112;53.592;10.184;2022-12-18T08:01:08;102808.50;;;-6.87;100.00
16016;BME280;8112;53.592;10.184;2022-12-18T08:06:10;102803.66;;;-6.81;100.00
16016;BME280;8112;53.592;10.184;2022-12-18T08:11:12;102809.22;;;-6.71;100.00
16016;BME280;8112;53.592;10.184;2022-12-18T08:16:15;102804.56;;;-6.61;100.00
16016;BME280;8112;53.592;10.184;2022-12-18T08:21:19;102799.78;;;-6.53;100.00
16016;BME280;8112;53.592;10.184;2022-12-18T08:26:25;102791.03;;;-6.38;100.00
16016;BME280;8112;53.592;10.184;2022-12-18T08:31:29;102799.69;;;-6.36;100.00
16016;BME280;8112;53.592;10.184;2022-12-18T08:36:31;102789.94;;;-6.24;100.00
16016;BME280;8112;53.592;10.184;2022-12-18T08:41:33;102779.13;;;-6.17;100.00
16016;BME280;8112;53.592;10.184;2022-12-18T08:46:37;102788.31;;;-6.02;100.00
16016;BME280;8112;53.592;10.184;2022-12-18T08:51:40;102785.84;;;-5.99;100.00
16016;BME280;8112;53.592;10.184;2022-12-18T08:56:41;102792.03;;;-5.94;100.00
16016;BME280;8112;53.592;10.184;2022-12-18T09:01:45;102790.63;;;-5.87;100.00
16016;BME280;8112;53.592;10.184;2022-12-18T09:06:47;102775.41;;;-5.82;100.00
16016;BME280;8112;53.592;10.184;2022-12-18T09:11:48;102776.47;;;-5.77;100.00
16016;BME280;8112;53.592;10.184;2022-12-18T09:16:52;102788.75;;;-5.70;100.00
16016;BME280;8112;53.592;10.184;2022-12-18T09:21:53;102785.06;;;-5.55;100.00
16016;BME280;8112;53.592;10.184;2022-12-18T09:26:55;102785.19;;;-5.52;100.00
16016;BME280;8112;53.592;10.184;2022-12-18T09:31:58;102789.38;;;-5.33;100.00
16016;BME280;8112;53.592;10.184;2022-12-18T09:37:00;102785.72;;;-5.17;100.00
16016;BME280;8112;53.592;10.184;2022-12-18T09:42:01;102791.66;;;-4.97;100.00
16016;BME280;8112;53.592;10.184;2022-12-18T09:47:12;102789.97;;;-4.74;100.00
16016;BME280;8112;53.592;10.184;2022-12-18T09:52:20;102783.94;;;-4.74;100.00
16016;BME280;8112;53.592;10.184;2022-12-18T09:57:24;102799.06;;;-4.59;100.00
16016;BME280;8112;53.592;10.184;2022-12-18T10:02:30;102793.75;;;-4.41;100.00
16016;BME280;8112;53.592;10.184;2022-12-18T10:07:41;102783.94;;;-4.27;100.00
16016;BME280;8112;53.592;10.184;2022-12-18T10:12:49;102784.41;;;-4.13;100.00
16016;BME280;8112;53.592;10.184;2022-12-18T10:17:58;102796.09;;;-3.98;100.00
16016;BME280;8112;53.592;10.184;2022-12-18T10:23:12;102791.19;;;-3.91;100.00
16016;BME280;8112;53.592;10.184;2022-12-18T10:28:19;102801.28;;;-3.73;100.00
16016;BME280;8112;53.592;10.184;2022-12-18T10:33:24;102805.34;;;-3.79;100.00
16016;BME280;8112;53.592;10.184;2022-12-18T10:38:28;102819.19;;;-3.76;100.00
16016;BME280;8112;53.592;10.184;2022-12-18T10:43:31;102806.69;;;-3.65;100.00
16016;BME280;8112;53.592;10.184;2022-12-18T10:48:39;102799.34;;;-3.52;100.00
16016;BME280;8112;53.592;10.184;2022-12-18T10:53:42;102788.66;;;-3.37;100.00
16016;BME280;8112;53.592;10.184;2022-12-18T10:58:56;102784.03;;;-3.20;100.00
16016;BME280;8112;53.592;10.184;2022-12-18T11:04:08;102782.59;;;-2.83;100.00
16016;BME280;8112;53.592;10.184;2022-12-18T11:09:19;102772.88;;;-2.61;100.00
16016;BME280;8112;53.592;10.184;2022-12-18T11:14:23;102775.09;;;-2.12;100.00
16016;BME280;8112;53.592;10.184;2022-12-18T11:19:33;102782.91;;;-1.76;100.00
16016;BME280;8112;53.592;10.184;2022-12-18T11:24:36;102760.34;;;-1.48;100.00
16016;BME280;8112;53.592;10.184;2022-12-18T11:29:39;102757.88;;;-1.41;100.00
16016;BME280;8112;53.592;10.184;2022-12-18T11:34:45;102755.75;;;-1.60;100.00
16016;BME280;8112;53.592;10.184;2022-12-18T11:39:52;102740.63;;;-1.79;100.00
16016;BME280;8112;53.592;10.184;2022-12-18T11:44:59;102740.22;;;-1.95;100.00
16016;BME280;8112;53.592;10.184;2022-12-18T11:50:10;102738.16;;;-2.08;100.00
16016;BME280;8112;53.592;10.184;2022-12-18T11:55:16;102739.06;;;-2.06;100.00
16016;BME280;8112;53.592;10.184;2022-12-18T12:00:22;102739.63;;;-2.18;100.00
16016;BME280;8112;53.592;10.184;2022-12-18T12:05:40;102729.34;;;-2.17;100.00
16016;BME280;8112;53.592;10.184;2022-12-18T12:10:52;102718.69;;;-2.29;100.00
16016;BME280;8112;53.592;10.184;2022-12-18T12:16:06;102706.16;;;-2.13;100.00
16016;BME280;8112;53.592;10.184;2022-12-18T12:21:18;102696.22;;;-2.32;100.00
16016;BME280;8112;53.592;10.184;2022-12-18T12:26:29;102701.72;;;-2.19;100.00
16016;BME280;8112;53.592;10.184;2022-12-18T12:31:52;102694.81;;;-2.20;100.00
16016;BME280;8112;53.592;10.184;2022-12-18T12:37:11;102681.25;;;-2.11;100.00
16016;BME280;8112;53.592;10.184;2022-12-18T12:42:20;102685.31;;;-2.20;100.00
16016;BME280;8112;53.592;10.184;2022-12-18T12:47:42;102661.94;;;-2.26;100.00
16016;BME280;8112;53.592;10.184;2022-12-18T12:52:49;102659.97;;;-2.01;100.00
16016;BME280;8112;53.592;10.184;2022-12-18T12:57:58;102647.16;;;-1.58;100.00
16016;BME280;8112;53.592;10.184;2022-12-18T13:03:07;102633.75;;;-1.81;100.00
16016;BME280;8112;53.592;10.184;2022-12-18T13:08:24;102642.41;;;-1.78;100.00
16016;BME280;8112;53.592;10.184;2022-12-18T13:13:49;102633.06;;;-1.73;100.00
16016;BME280;8112;53.592;10.184;2022-12-18T13:18:53;102618.72;;;-1.96;100.00
16016;BME280;8112;53.592;10.184;2022-12-18T13:24:14;102628.59;;;-1.80;100.00
16016;BME280;8112;53.592;10.184;2022-12-18T13:29:41;102621.72;;;-1.79;100.00
16016;BME280;8112;53.592;10.184;2022-12-18T13:34:43;102641.13;;;-1.95;100.00
16016;BME280;8112;53.592;10.184;2022-12-18T13:39:47;102630.34;;;-2.14;100.00
16016;BME280;8112;53.592;10.184;2022-12-18T13:44:49;102616.91;;;-2.37;100.00
16016;BME280;8112;53.592;10.184;2022-12-18T13:49:50;102617.06;;;-2.65;100.00
16016;BME280;8112;53.592;10.184;2022-12-18T13:54:55;102611.13;;;-2.93;100.00
16016;BME280;8112;53.592;10.184;2022-12-18T14:00:14;102638.16;;;-3.10;100.00
16016;BME280;8112;53.592;10.184;2022-12-18T14:05:22;102635.97;;;-3.27;100.00
16016;BME280;8112;53.592;10.184;2022-12-18T14:10:25;102639.16;;;-3.36;100.00
16016;BME280;8112;53.592;10.184;2022-12-18T14:15:31;102639.91;;;-3.40;100.00
16016;BME280;8112;53.592;10.184;2022-12-18T14:20:34;102621.69;;;-3.46;100.00
16016;BME280;8112;53.592;10.184;2022-12-18T14:25:37;102619.81;;;-3.50;100.00
16016;BME280;8112;53.592;10.184;2022-12-18T14:30:40;102627.19;;;-3.63;100.00
16016;BME280;8112;53.592;10.184;2022-12-18T14:35:52;102627.91;;;-3.67;100.00
16016;BME280;8112;53.592;10.184;2022-12-18T14:41:06;102627.47;;;-3.81;100.00
16016;BME280;8112;53.592;10.184;2022-12-18T14:46:28;102620.16;;;-3.96;100.00
16016;BME280;8112;53.592;10.184;2022-12-18T14:51:31;102618.00;;;-4.09;100.00
16016;BME280;8112;53.592;10.184;2022-12-18T14:56:37;102607.28;;;-4.22;100.00
16016;BME280;8112;53.592;10.184;2022-12-18T15:01:46;102606.19;;;-4.30;100.00
16016;BME280;8112;53.592;10.184;2022-12-18T15:06:48;102594.03;;;-4.34;100.00
16016;BME280;8112;53.592;10.184;2022-12-18T15:12:05;102586.91;;;-4.41;100.00
16016;BME280;8112;53.592;10.184;2022-12-18T15:17:16;102574.69;;;-4.49;100.00
16016;BME280;8112;53.592;10.184;2022-12-18T15:22:23;102564.88;;;-4.61;100.00
16016;BME280;8112;53.592;10.184;2022-12-18T15:27:30;102555.16;;;-4.68;100.00
16016;BME280;8112;53.592;10.184;2022-12-18T15:32:32;102549.88;;;-4.73;100.00
16016;BME280;8112;53.592;10.184;2022-12-18T15:37:34;102557.53;;;-4.74;100.00
16016;BME280;8112;53.592;10.184;2022-12-18T15:42:37;102543.94;;;-4.70;100.00
16016;BME280;8112;53.592;10.184;2022-12-18T15:47:52;102531.25;;;-4.65;100.00
16016;BME280;8112;53.592;10.184;2022-12-18T15:52:54;102531.56;;;-4.56;100.00
16016;BME280;8112;53.592;10.184;2022-12-18T15:57:57;102531.66;;;-4.53;100.00
16016;BME280;8112;53.592;10.184;2022-12-18T16:02:59;102532.75;;;-4.46;100.00
16016;BME280;8112;53.592;10.184;2022-12-18T16:08:01;102525.88;;;-4.46;100.00
16016;BME280;8112;53.592;10.184;2022-12-18T16:13:04;102516.50;;;-4.44;100.00
16016;BME280;8112;53.592;10.184;2022-12-18T16:18:05;102520.00;;;-4.41;100.00
16016;BME280;8112;53.592;10.184;2022-12-18T16:23:07;102514.00;;;-4.42;100.00
16016;BME280;8112;53.592;10.184;2022-12-18T16:28:10;102515.75;;;-4.41;100.00
16016;BME280;8112;53.592;10.184;2022-12-18T16:33:11;102501.28;;;-4.37;100.00
16016;BME280;8112;53.592;10.184;2022-12-18T16:38:13;102498.56;;;-4.42;100.00
16016;BME280;8112;53.592;10.184;2022-12-18T16:43:16;102487.56;;;-4.36;100.00
16016;BME280;8112;53.592;10.184;2022-12-18T16:48:18;102481.59;;;-4.35;100.00
16016;BME280;8112;53.592;10.184;2022-12-18T16:53:19;102475.63;;;-4.34;100.00
16016;BME280;8112;53.592;10.184;2022-12-18T16:58:23;102480.19;;;-4.25;100.00
16016;BME280;8112;53.592;10.184;2022-12-18T17:03:24;102472.31;;;-4.30;100.00
16016;BME280;8112;53.592;10.184;2022-12-18T17:08:26;102472.50;;;-4.24;100.00
16016;BME280;8112;53.592;10.184;2022-12-18T17:13:30;102463.84;;;-4.26;100.00
16016;BME280;8112;53.592;10.184;2022-12-18T17:18:32;102473.22;;;-4.28;100.00
16016;BME280;8112;53.592;10.184;2022-12-18T17:23:34;102448.59;;;-4.20;100.00
16016;BME280;8112;53.592;10.184;2022-12-18T17:28:39;102442.75;;;-4.14;100.00
16016;BME280;8112;53.592;10.184;2022-12-18T17:33:42;102441.78;;;-4.18;100.00
16016;BME280;8112;53.592;10.184;2022-12-18T17:38:49;102448.00;;;-4.11;100.00
16016;BME280;8112;53.592;10.184;2022-12-18T17:43:56;102447.19;;;-4.08;100.00
16016;BME280;8112;53.592;10.184;2022-12-18T17:48:58;102443.81;;;-4.07;100.00
16016;BME280;8112;53.592;10.184;2022-12-18T17:54:00;102423.28;;;-4.04;100.00
16016;BME280;8112;53.592;10.184;2022-12-18T17:59:03;102409.56;;;-4.03;100.00
16016;BME280;8112;53.592;10.184;2022-12-18T18:04:06;102407.94;;;-4.01;100.00
16016;BME280;8112;53.592;10.184;2022-12-18T18:09:08;102380.47;;;-4.01;100.00
16016;BME280;8112;53.592;10.184;2022-12-18T18:14:14;102365.06;;;-3.99;100.00
16016;BME280;8112;53.592;10.184;2022-12-18T18:19:18;102367.56;;;-4.02;100.00
16016;BME280;8112;53.592;10.184;2022-12-18T18:24:22;102357.56;;;-3.91;100.00
16016;BME280;8112;53.592;10.184;2022-12-18T18:29:27;102374.69;;;-3.93;100.00
16016;BME280;8112;53.592;10.184;2022-12-18T18:34:31;102359.31;;;-3.90;100.00
16016;BME280;8112;53.592;10.184;2022-12-18T18:39:33;102356.66;;;-3.93;100.00
16016;BME280;8112;53.592;10.184;2022-12-18T18:44:36;102355.00;;;-3.90;100.00
16016;BME280;8112;53.592;10.184;2022-12-18T18:49:38;102349.16;;;-3.84;100.00
16016;BME280;8112;53.592;10.184;2022-12-18T18:54:40;102344.84;;;-3.85;100.00
16016;BME280;8112;53.592;10.184;2022-12-18T18:59:43;102342.31;;;-3.83;100.00
16016;BME280;8112;53.592;10.184;2022-12-18T19:04:44;102320.94;;;-3.79;100.00
16016;BME280;8112;53.592;10.184;2022-12-18T19:09:46;102309.75;;;-3.80;100.00
16016;BME280;8112;53.592;10.184;2022-12-18T19:14:54;102315.78;;;-3.79;100.00
16016;BME280;8112;53.592;10.184;2022-12-18T19:19:55;102291.56;;;-3.86;100.00
16016;BME280;8112;53.592;10.184;2022-12-18T19:24:57;102278.84;;;-3.80;100.00
16016;BME280;8112;53.592;10.184;2022-12-18T19:30:00;102265.94;;;-3.81;100.00
16016;BME280;8112;53.592;10.184;2022-12-18T19:35:02;102253.13;;;-3.78;100.00
16016;BME280;8112;53.592;10.184;2022-12-18T19:40:05;102245.34;;;-3.80;100.00
16016;BME280;8112;53.592;10.184;2022-12-18T19:45:10;102256.69;;;-3.73;100.00
16016;BME280;8112;53.592;10.184;2022-12-18T19:50:12;102261.81;;;-3.75;100.00
16016;BME280;8112;53.592;10.184;2022-12-18T19:55:14;102261.91;;;-3.70;100.00
16016;BME280;8112;53.592;10.184;2022-12-18T20:00:19;102242.09;;;-3.73;100.00
16016;BME280;8112;53.592;10.184;2022-12-18T20:05:21;102219.88;;;-3.67;100.00
16016;BME280;8112;53.592;10.184;2022-12-18T20:10:24;102225.09;;;-3.66;100.00
16016;BME280;8112;53.592;10.184;2022-12-18T20:15:27;102222.59;;;-3.61;100.00
16016;BME280;8112;53.592;10.184;2022-12-18T20:20:29;102202.88;;;-3.61;100.00
16016;BME280;8112;53.592;10.184;2022-12-18T20:25:31;102195.16;;;-3.59;100.00
16016;BME280;8112;53.592;10.184;2022-12-18T20:30:34;102195.22;;;-3.58;100.00
16016;BME280;8112;53.592;10.184;2022-12-18T20:35:35;102190.19;;;-3.51;100.00
16016;BME280;8112;53.592;10.184;2022-12-18T20:40:39;102179.84;;;-3.53;100.00
16016;BME280;8112;53.592;10.184;2022-12-18T20:45:42;102174.69;;;-3.53;100.00
16016;BME280;8112;53.592;10.184;2022-12-18T20:50:44;102161.84;;;-3.51;100.00
16016;BME280;8112;53.592;10.184;2022-12-18T20:55:45;102143.72;;;-3.56;100.00
16016;BME280;8112;53.592;10.184;2022-12-18T21:00:49;102147.19;;;-3.54;100.00
16016;BME280;8112;53.592;10.184;2022-12-18T21:05:51;102136.22;;;-3.44;100.00
16016;BME280;8112;53.592;10.184;2022-12-18T21:10:53;102120.94;;;-3.36;100.00
16016;BME280;8112;53.592;10.184;2022-12-18T21:15:56;102103.84;;;-3.31;100.00
16016;BME280;8112;53.592;10.184;2022-12-18T21:20:58;102097.09;;;-3.25;100.00
16016;BME280;8112;53.592;10.184;2022-12-18T21:26:14;102089.25;;;-3.30;100.00
16016;BME280;8112;53.592;10.184;2022-12-18T21:31:17;102066.09;;;-3.28;100.00
16016;BME280;8112;53.592;10.184;2022-12-18T21:36:19;102075.63;;;-3.23;100.00
16016;BME280;8112;53.592;10.184;2022-12-18T21:41:21;102122.22;;;-3.15;100.00
16016;BME280;8112;53.592;10.184;2022-12-18T21:46:44;102149.00;;;-3.10;100.00
16016;BME280;8112;53.592;10.184;2022-12-18T21:51:46;102190.31;;;-3.07;100.00
16016;BME280;8112;53.592;10.184;2022-12-18T21:56:50;102173.16;;;-3.05;100.00
16016;BME280;8112;53.592;10.184;2022-12-18T22:01:55;102172.31;;;-3.04;100.00
16016;BME280;8112;53.592;10.184;2022-12-18T22:07:00;102091.50;;;-3.03;100.00
16016;BME280;8112;53.592;10.184;2022-12-18T22:12:02;102096.53;;;-3.10;100.00
16016;BME280;8112;53.592;10.184;2022-12-18T22:17:05;102106.94;;;-3.06;100.00
16016;BME280;8112;53.592;10.184;2022-12-18T22:22:07;102104.34;;;-3.06;100.00
16016;BME280;8112;53.592;10.184;2022-12-18T22:27:08;102100.16;;;-3.01;100.00
16016;BME280;8112;53.592;10.184;2022-12-18T22:32:13;102105.34;;;-2.97;100.00
16016;BME280;8112;53.592;10.184;2022-12-18T22:37:16;102101.97;;;-2.95;100.00
16016;BME280;8112;53.592;10.184;2022-12-18T22:42:17;102084.94;;;-2.87;100.00
16016;BME280;8112;53.592;10.184;2022-12-18T22:47:21;102069.38;;;-2.91;100.00
16016;BME280;8112;53.592;10.184;2022-12-18T22:52:22;102054.94;;;-2.80;100.00
16016;BME280;8112;53.592;10.184;2022-12-18T22:57:24;102037.69;;;-2.84;100.00
16016;BME280;8112;53.592;10.184;2022-12-18T23:02:28;102031.63;;;-2.84;100.00
16016;BME280;8112;53.592;10.184;2022-12-18T23:07:29;102023.13;;;-2.80;100.00
16016;BME280;8112;53.592;10.184;2022-12-18T23:12:31;102003.22;;;-2.88;100.00
16016;BME280;8112;53.592;10.184;2022-12-18T23:17:34;101992.09;;;-2.85;100.00
16016;BME280;8112;53.592;10.184;2022-12-18T23:22:36;101977.41;;;-2.89;100.00
16016;BME280;8112;53.592;10.184;2022-12-18T23:27:37;101965.34;;;-2.90;100.00
16016;BME280;8112;53.592;10.184;2022-12-18T23:32:40;101968.78;;;-2.91;100.00
16016;BME280;8112;53.592;10.184;2022-12-18T23:37:42;101979.94;;;-2.92;100.00
16016;BME280;8112;53.592;10.184;2022-12-18T23:42:44;101976.50;;;-2.91;100.00
16016;BME280;8112;53.592;10.184;2022-12-18T23:47:47;101973.13;;;-2.86;100.00
16016;BME280;8112;53.592;10.184;2022-12-18T23:52:48;101962.91;;;-2.82;100.00
16016;BME280;8112;53.592;10.184;2022-12-18T23:57:50;101954.22;;;-2.86;100.00
